• Join FlightAware (Why Join?)
  • Login
  • US Flag 
06:08AM EDT


 

Airport Tracker/Info


-or-


 

Live Flight TrackerFlight Track Log ✈ N118RM ✈ 08-Jul-2013 ✈ KOMA - 4D8

Flight Track Log - Related Links

Times and Time Zones

All times are in EDT time to prevent confusion due to time zone crossing. See the N118RM flight status page for this flight to view local times or setup timezone preferences in your user account.

Time Position Orientation Groundspeed Altitude Reporting Facility
EDT Latitude Longitude Course Direction KTS MPH feet Rate Location/Type
04:51PM 41.2925 -95.8839 14° North 104 120 1,400  Level Minneapolis Center
04:52PM 41.2781 -95.8550 124° Southeast 116 133 2,100 840 Climbing Minneapolis Center
04:52PM 41.2844 -95.8264 73° East 135 155 2,700 780 Climbing Minneapolis Center
04:53PM 41.3231 -95.8108 17° North 143 165 3,600 840 Climbing Minneapolis Center
04:54PM 41.3622 -95.8006 11° North 144 166 4,500 840 Climbing Minneapolis Center
04:56PM 41.4053 -95.7872 13° North 144 166 5,500 780 Climbing Minneapolis Center
04:57PM 41.5963 -95.7846 14° North  Level FlightAware Approximate
04:57PM 41.4539 -95.7667 18° North 147 169 6,600  Level Minneapolis Center
04:58PM 41.5056 -95.7497 14° North 154 177 7,600 900 Climbing Minneapolis Center
04:59PM 41.5497 -95.7358 13° North 159 183 8,500 660 Climbing Minneapolis Center
05:00PM 41.5947 -95.7217 13° North 163 188 9,000 240 Climbing Minneapolis Center
05:01PM 41.6472 -95.7050 13° North 176 203 9,000  Level Minneapolis Center
05:02PM 41.7133 -95.6842 13° North 193 222 9,000  Level Minneapolis Center
05:03PM 41.7686 -95.6675 13° North 199 229 9,000  Level Minneapolis Center
05:04PM 41.8244 -95.6489 14° North 203 234 9,000  Level Minneapolis Center
05:05PM 41.8797 -95.6311 13° North 204 235 9,000 -60 Level Minneapolis Center
05:06PM 41.9364 -95.6136 13° North 206 237 8,900  Descending Minneapolis Center
05:07PM 41.9922 -95.5953 14° North 206 237 9,000  Climbing Minneapolis Center
05:08PM 42.0581 -95.5739 14° North 205 236 9,000  Level Minneapolis Center
05:09PM 42.1133 -95.5567 13° North 204 235 9,000  Level Minneapolis Center
05:10PM 42.1692 -95.5386 13° North 206 237 9,000  Level Minneapolis Center
05:11PM 42.2247 -95.5206 14° North 205 236 9,000  Level Minneapolis Center
05:12PM 42.2800 -95.5022 14° North 206 237 9,000  Level Minneapolis Center
05:13PM 42.3361 -95.4867 12° North 206 237 9,000  Level Minneapolis Center
05:15PM 42.4011 -95.4633 15° North 203 234 9,000  Level Minneapolis Center
05:16PM 42.4550 -95.4472 12° North 199 229 9,000  Level Minneapolis Center
05:17PM 42.5097 -95.4278 15° North 202 232 9,000  Level Minneapolis Center
05:18PM 42.5633 -95.4111 13° North 200 230 9,000 -240 Level Minneapolis Center
05:19PM 42.6181 -95.3936 13° North 200 230 8,600 -540 Descending Minneapolis Center
05:20PM 42.6767 -95.3733 14° North 211 243 7,900 -720 Descending Minneapolis Center
05:21PM 42.7406 -95.3533 13° North 214 246 7,200 -720 Descending Minneapolis Center
05:22PM 42.7978 -95.3386 11° North 210 242 6,500 -600 Descending Minneapolis Center
05:23PM 42.8431 -95.3208 16° North 212 244 6,000 -600 Descending Minneapolis Center
05:24PM 42.9150 -95.2972 14° North 211 243 5,300 -720 Descending Minneapolis Center
05:26PM 42.9982 -95.2688 14° North  Level FlightAware Approximate
05:33PM 43.3167 -95.1500 North  Level FlightAware Approximate
05:34PM 43.3332 -95.1590 North  Level Estimated
05:35PM 43.3332 -95.1590 North  Level Estimated
05:36PM 43.3332 -95.1590 North  Level Estimated
05:37PM 43.3332 -95.1590 North  Level Estimated